createdAt,value
2022-08-26T00:01:56.212Z,101101.75
2022-08-26T00:04:25.791Z,101100.78
2022-08-26T00:06:54.832Z,101106.53
2022-08-26T00:09:25.195Z,101103.31
2022-08-26T00:11:54.454Z,101092.72
2022-08-26T00:14:25.939Z,101100.09
2022-08-26T00:16:55.725Z,101105.38
2022-08-26T00:19:22.848Z,101102.16
2022-08-26T00:21:51.321Z,101096.19
2022-08-26T00:24:20.958Z,101090.53
2022-08-26T00:26:48.803Z,101091.97
2022-08-26T00:29:17.397Z,101100.97
2022-08-26T00:31:45.242Z,101092.06
2022-08-26T00:34:14.078Z,101096.72
2022-08-26T00:36:44.054Z,101098.63
2022-08-26T00:39:11.273Z,101086.09
2022-08-26T00:41:40.044Z,101087.22
2022-08-26T00:44:10.261Z,101082.19
2022-08-26T00:46:46.854Z,101086.72
2022-08-26T00:49:28.420Z,101080.25
2022-08-26T00:51:59.038Z,101078.44
2022-08-26T00:54:30.477Z,101076.81
2022-08-26T00:57:16.333Z,101084.72
2022-08-26T00:59:47.873Z,101075.50
2022-08-26T01:02:20.868Z,101080.66
2022-08-26T01:04:55.825Z,101085.31
2022-08-26T01:07:27.494Z,101079.66
2022-08-26T01:10:00.214Z,101078.06
2022-08-26T01:12:32.536Z,101078.84
2022-08-26T01:15:00.839Z,101072.09
2022-08-26T01:17:27.849Z,101074.81
2022-08-26T01:20:08.706Z,101078.56
2022-08-26T01:23:01.647Z,101069.38
2022-08-26T01:25:33.734Z,101076.75
2022-08-26T01:28:09.093Z,101072.59
2022-08-26T01:30:39.642Z,101073.72
2022-08-26T01:33:14.045Z,101082.72
2022-08-26T01:35:42.925Z,101074.81
2022-08-26T01:38:11.314Z,101077.56
2022-08-26T01:40:39.886Z,101081.41
2022-08-26T01:43:09.403Z,101065.34
2022-08-26T01:45:40.585Z,101069.38
2022-08-26T01:48:14.628Z,101065.53
2022-08-26T01:50:45.278Z,101066.63
2022-08-26T01:53:15.560Z,101074.53
2022-08-26T01:55:49.086Z,101062.78
2022-08-26T01:58:29.156Z,101064.22
2022-08-26T02:00:56.576Z,101066.25
2022-08-26T02:03:25.164Z,101060.81
2022-08-26T02:05:58.723Z,101067.56
2022-08-26T02:08:52.574Z,101070.59
2022-08-26T02:11:20.515Z,101059.50
2022-08-26T02:13:55.674Z,101059.19
2022-08-26T02:16:26.446Z,101063.84
2022-08-26T02:18:56.712Z,101064.16
2022-08-26T02:21:24.888Z,101055.97
2022-08-26T02:23:52.644Z,101055.16
2022-08-26T02:26:26.984Z,101060.91
2022-08-26T02:29:10.508Z,101052.72
2022-08-26T02:31:37.601Z,101056.06
2022-08-26T02:34:31.076Z,101050.81
2022-08-26T02:37:07.739Z,101057.06
2022-08-26T02:39:37.482Z,101062.84
2022-08-26T02:42:05.335Z,101050.94
2022-08-26T02:44:32.742Z,101051.75
2022-08-26T02:47:00.842Z,101062.84
2022-08-26T02:49:30.526Z,101053.53
2022-08-26T02:52:01.984Z,101055.16
2022-08-26T02:54:29.518Z,101046.66
2022-08-26T02:56:57.157Z,101043.31
2022-08-26T02:59:24.691Z,101043.81
2022-08-26T03:01:55.900Z,101040.47
2022-08-26T03:04:23.625Z,101039.34
2022-08-26T03:06:53.970Z,101039.84
2022-08-26T03:09:23.347Z,101038.72
2022-08-26T03:11:51.916Z,101040.03
2022-08-26T03:14:18.860Z,101028.13
2022-08-26T03:16:48.519Z,101025.56
2022-08-26T03:19:17.607Z,101032.66
2022-08-26T03:21:45.040Z,101032.16
2022-08-26T03:24:20.248Z,101036.19
2022-08-26T03:26:52.194Z,101033.75
2022-08-26T03:29:40.420Z,101032.16
2022-08-26T03:32:08.536Z,101023.47
2022-08-26T03:34:36.355Z,101027.31
2022-08-26T03:37:03.598Z,101023.28
2022-08-26T03:39:32.588Z,101028.72
2022-08-26T03:42:00.050Z,101025.69
2022-08-26T03:44:27.373Z,101031.16
2022-08-26T03:46:54.982Z,101020.25
2022-08-26T03:49:22.512Z,101021.53
2022-08-26T03:51:50.719Z,101029.22
2022-08-26T03:54:18.466Z,101021.03
2022-08-26T03:56:46.577Z,101023.28
2022-08-26T03:59:13.815Z,101017.00
2022-08-26T04:01:41.076Z,101015.41
2022-08-26T04:04:08.140Z,101016.50
2022-08-26T04:06:43.300Z,101020.84
2022-08-26T04:09:18.475Z,101010.25
2022-08-26T04:11:50.351Z,101018.75
2022-08-26T04:14:22.286Z,101018.25
2022-08-26T04:16:50.768Z,101025.63
2022-08-26T04:19:19.000Z,101016.63
2022-08-26T04:21:48.792Z,101024.81
2022-08-26T04:24:17.623Z,101025.13
2022-08-26T04:26:45.018Z,101014.53
2022-08-26T04:29:20.527Z,101020.78
2022-08-26T04:31:50.368Z,101016.75
2022-08-26T04:34:28.439Z,101020.28
2022-08-26T04:36:57.717Z,101006.78
2022-08-26T04:39:25.520Z,101016.44
2022-08-26T04:41:55.116Z,101024.31
2022-08-26T04:44:24.315Z,101013.09
2022-08-26T04:46:52.172Z,101016.63
2022-08-26T04:49:20.684Z,101008.31
2022-08-26T04:51:48.912Z,101007.53
2022-08-26T04:54:16.594Z,101012.06
2022-08-26T04:56:49.319Z,101010.63
2022-08-26T04:59:18.224Z,101012.84
2022-08-26T05:01:52.302Z,101006.16
2022-08-26T05:04:21.525Z,100998.78
2022-08-26T05:06:49.840Z,100995.72
2022-08-26T05:09:18.630Z,101005.75
2022-08-26T05:11:48.325Z,101003.03
2022-08-26T05:14:21.051Z,101015.09
2022-08-26T05:16:49.839Z,101020.75
2022-08-26T05:19:19.172Z,101011.66
2022-08-26T05:21:48.569Z,101017.00
2022-08-26T05:24:16.263Z,101023.44
2022-08-26T05:26:44.537Z,101026.22
2022-08-26T05:29:12.321Z,101015.78
2022-08-26T05:31:39.481Z,101028.06
2022-08-26T05:34:07.431Z,101024.38
2022-08-26T05:36:36.951Z,101034.53
2022-08-26T05:39:10.588Z,101033.31
2022-08-26T05:41:41.180Z,101031.25
2022-08-26T05:44:12.620Z,101030.47
2022-08-26T05:46:42.386Z,101017.97
2022-08-26T05:49:13.391Z,101022.47
2022-08-26T05:51:42.186Z,101026.38
2022-08-26T05:54:10.280Z,101019.97
2022-08-26T05:56:39.064Z,101019.69
2022-08-26T05:59:10.884Z,101024.34
2022-08-26T06:01:43.573Z,101029.84
2022-08-26T06:04:11.839Z,101028.75
2022-08-26T06:06:43.000Z,101029.91
2022-08-26T06:09:11.067Z,101033.78
2022-08-26T06:11:39.047Z,101018.00
2022-08-26T06:14:07.781Z,101022.03
2022-08-26T06:16:40.781Z,101022.50
2022-08-26T06:19:11.468Z,101021.09
2022-08-26T06:21:42.149Z,101021.91
2022-08-26T06:24:32.233Z,101014.00
2022-08-26T06:27:05.844Z,101012.88
2022-08-26T06:29:36.299Z,101004.63
2022-08-26T06:32:05.565Z,101013.31
2022-08-26T06:34:33.793Z,101009.56
2022-08-26T06:37:02.728Z,101005.84
2022-08-26T06:39:31.643Z,101011.13
2022-08-26T06:42:00.530Z,101009.63
2022-08-26T06:44:27.789Z,101004.56
2022-08-26T06:46:55.105Z,101009.34
2022-08-26T06:49:27.439Z,101008.19
2022-08-26T06:51:58.242Z,101006.81
2022-08-26T06:54:27.716Z,101005.63
2022-08-26T06:56:56.731Z,101000.38
2022-08-26T06:59:24.401Z,101006.38
2022-08-26T07:01:52.430Z,101003.41
2022-08-26T07:04:22.311Z,101005.53
2022-08-26T07:07:15.559Z,100999.72
2022-08-26T07:10:08.893Z,100997.28
2022-08-26T07:12:37.018Z,100987.97
2022-08-26T07:15:04.640Z,100998.88
2022-08-26T07:17:31.610Z,100984.13
2022-08-26T07:20:03.253Z,100979.69
2022-08-26T07:22:31.846Z,100977.50
2022-08-26T07:24:59.215Z,100985.53
2022-08-26T07:27:26.376Z,100969.31
2022-08-26T07:29:57.066Z,100976.06
2022-08-26T07:32:25.442Z,100976.66
2022-08-26T07:34:52.322Z,100978.91
2022-08-26T07:37:19.778Z,100979.47
2022-08-26T07:39:47.516Z,100965.13
2022-08-26T07:42:18.415Z,100974.81
2022-08-26T07:44:45.573Z,100967.16
2022-08-26T07:47:25.213Z,100967.41
2022-08-26T07:49:55.961Z,100964.47
2022-08-26T07:52:27.007Z,100972.97
2022-08-26T07:54:57.976Z,100955.66
2022-08-26T07:57:26.421Z,100965.56
2022-08-26T07:59:54.081Z,100956.84
2022-08-26T08:02:24.415Z,100959.19
2022-08-26T08:04:52.255Z,100963.84
2022-08-26T08:07:19.550Z,100945.81
2022-08-26T08:09:51.252Z,100954.53
2022-08-26T08:12:19.565Z,100948.19
2022-08-26T08:15:15.321Z,100945.09
2022-08-26T08:17:46.027Z,100944.63
2022-08-26T08:20:14.481Z,100944.28
2022-08-26T08:22:42.590Z,100938.72
2022-08-26T08:25:12.369Z,100931.16
2022-08-26T08:27:42.412Z,100935.78
2022-08-26T08:30:13.826Z,100933.16
2022-08-26T08:32:43.752Z,100921.44
2022-08-26T08:35:14.230Z,100927.09
2022-08-26T08:37:43.883Z,100929.53
2022-08-26T08:40:18.081Z,100922.34
2022-08-26T08:42:56.852Z,100917.56
2022-08-26T08:45:49.590Z,100908.34
2022-08-26T08:48:29.615Z,100906.72
2022-08-26T08:51:35.239Z,100911.91
2022-08-26T08:54:02.867Z,100914.69
2022-08-26T08:56:47.599Z,100907.91
2022-08-26T08:59:24.797Z,100898.34
2022-08-26T09:02:27.359Z,100891.41
2022-08-26T09:05:03.133Z,100898.03
2022-08-26T09:07:36.877Z,100893.50
2022-08-26T09:10:29.656Z,100890.72
2022-08-26T09:12:58.708Z,100886.88
2022-08-26T09:16:07.438Z,100880.97
2022-08-26T09:18:59.498Z,100882.72
2022-08-26T09:21:27.031Z,100880.84
2022-08-26T09:23:56.767Z,100884.31
2022-08-26T09:26:30.655Z,100872.19
2022-08-26T09:29:05.425Z,100879.41
2022-08-26T09:31:36.277Z,100879.22
2022-08-26T09:34:26.580Z,100884.06
2022-08-26T09:36:59.648Z,100871.66
2022-08-26T09:39:37.684Z,100869.94
2022-08-26T09:42:23.571Z,100874.34
2022-08-26T09:44:59.428Z,100876.50
2022-08-26T09:47:46.215Z,100870.59
2022-08-26T09:50:36.401Z,100863.09
2022-08-26T09:53:28.720Z,100854.56
2022-08-26T09:56:27.841Z,100852.38
2022-08-26T09:58:56.732Z,100853.22
2022-08-26T10:01:42.102Z,100840.00
2022-08-26T10:04:14.030Z,100835.69
2022-08-26T10:07:04.979Z,100816.25
2022-08-26T10:09:37.968Z,100821.03
2022-08-26T10:12:17.720Z,100815.53
2022-08-26T10:14:54.115Z,100804.88
2022-08-26T10:17:32.534Z,100812.69
2022-08-26T10:20:27.502Z,100794.72
2022-08-26T10:23:05.588Z,100798.78
2022-08-26T10:25:57.084Z,100791.38
2022-08-26T10:28:50.081Z,100788.94
2022-08-26T10:31:38.209Z,100766.91
2022-08-26T10:34:10.361Z,100747.53
2022-08-26T10:37:13.697Z,100757.47
2022-08-26T10:40:04.518Z,100756.25
2022-08-26T10:42:51.081Z,100746.53
2022-08-26T10:45:26.648Z,100742.63
2022-08-26T10:48:07.418Z,100732.50
2022-08-26T10:50:41.853Z,100736.09
2022-08-26T10:53:27.812Z,100731.88
2022-08-26T10:56:06.332Z,100726.91
2022-08-26T10:59:12.242Z,100732.81
2022-08-26T11:02:07.036Z,100727.63
2022-08-26T11:04:58.635Z,100715.66
2022-08-26T11:07:41.808Z,100715.19
2022-08-26T11:10:20.763Z,100718.25
2022-08-26T11:13:03.593Z,100710.84
2022-08-26T11:15:31.444Z,100718.69
2022-08-26T11:18:04.945Z,100723.78
2022-08-26T11:20:55.038Z,100709.69
2022-08-26T11:23:27.282Z,100710.16
2022-08-26T11:25:57.443Z,100717.09
2022-08-26T11:28:45.302Z,100700.81
2022-08-26T11:31:25.026Z,100704.31
2022-08-26T11:34:00.655Z,100702.84
2022-08-26T11:36:56.336Z,100701.75
2022-08-26T11:39:31.751Z,100698.72
2022-08-26T11:42:35.101Z,100698.47
2022-08-26T11:45:26.352Z,100694.91
2022-08-26T11:47:54.797Z,100695.63
2022-08-26T11:50:28.395Z,100697.84
2022-08-26T11:53:01.826Z,100701.13
2022-08-26T11:55:32.796Z,100706.41
2022-08-26T11:58:02.137Z,100709.22
2022-08-26T12:00:45.728Z,100720.25
2022-08-26T12:03:23.042Z,100724.72
2022-08-26T12:05:53.489Z,100729.13
2022-08-26T12:08:27.782Z,100717.63
2022-08-26T12:11:13.634Z,100728.16
2022-08-26T12:13:42.284Z,100719.97
2022-08-26T12:16:09.980Z,100746.56
2022-08-26T12:18:39.068Z,100756.81
2022-08-26T12:21:26.149Z,100760.34
2022-08-26T12:23:57.096Z,100783.94
2022-08-26T12:26:33.007Z,100782.25
2022-08-26T12:29:12.733Z,100780.84
2022-08-26T12:31:48.115Z,100775.88
2022-08-26T12:34:17.868Z,100788.03
2022-08-26T12:39:37.978Z,100795.50
2022-08-26T12:42:15.729Z,100801.53
2022-08-26T12:45:04.056Z,100808.59
2022-08-26T12:47:43.996Z,100812.28
2022-08-26T12:50:23.819Z,100814.88
2022-08-26T12:53:02.431Z,100803.91
2022-08-26T12:55:32.450Z,100787.25
2022-08-26T12:58:37.512Z,100799.22
2022-08-26T13:01:04.451Z,100819.78
2022-08-26T13:03:34.893Z,100835.78
2022-08-26T13:06:20.532Z,100844.50
2022-08-26T13:09:11.944Z,100798.16
2022-08-26T13:11:45.165Z,100775.94
2022-08-26T13:14:23.842Z,100800.78
2022-08-26T13:16:52.582Z,100804.56
2022-08-26T13:19:23.491Z,100821.84
2022-08-26T13:21:54.041Z,100828.69
2022-08-26T13:24:43.079Z,100842.97
2022-08-26T13:27:14.136Z,100844.22
2022-08-26T13:29:41.660Z,100828.16
2022-08-26T13:32:09.489Z,100806.34
2022-08-26T13:34:38.753Z,100804.41
2022-08-26T13:37:06.894Z,100816.13
2022-08-26T13:39:33.915Z,100816.94
2022-08-26T13:42:01.119Z,100797.50
2022-08-26T13:44:28.143Z,100786.78
2022-08-26T13:46:55.152Z,100770.88
2022-08-26T13:49:22.644Z,100752.59
2022-08-26T13:51:49.946Z,100743.59
2022-08-26T13:54:17.246Z,100740.25
2022-08-26T13:56:44.226Z,100747.00
2022-08-26T13:59:12.111Z,100756.97
2022-08-26T14:01:40.014Z,100758.75
2022-08-26T14:04:08.361Z,100753.97
2022-08-26T14:06:35.941Z,100757.66
2022-08-26T14:09:03.834Z,100760.44
2022-08-26T14:11:34.779Z,100764.16
2022-08-26T14:14:18.142Z,100760.28
2022-08-26T14:16:59.544Z,100759.81
2022-08-26T14:19:30.064Z,100766.91
2022-08-26T14:21:57.909Z,100778.31
2022-08-26T14:24:24.977Z,100799.34
2022-08-26T14:26:51.985Z,100838.53
2022-08-26T14:29:19.047Z,100838.94
2022-08-26T14:31:46.146Z,100820.75
2022-08-26T14:34:13.981Z,100804.63
2022-08-26T14:36:41.439Z,100809.41
2022-08-26T14:39:11.608Z,100833.16
2022-08-26T14:41:53.797Z,100832.69
2022-08-26T14:44:26.734Z,100834.13
2022-08-26T14:46:56.683Z,100840.38
2022-08-26T14:49:27.157Z,100851.91
2022-08-26T14:51:55.207Z,100867.44
2022-08-26T14:54:22.398Z,100857.91
2022-08-26T14:56:54.823Z,100812.09
2022-08-26T14:59:29.057Z,100778.41
2022-08-26T15:01:57.179Z,100774.19
2022-08-26T15:04:25.409Z,100774.50
2022-08-26T15:06:54.903Z,100761.50
2022-08-26T15:09:23.799Z,100760.13
2022-08-26T15:11:53.156Z,100764.78
2022-08-26T15:14:21.825Z,100763.66
2022-08-26T15:16:52.942Z,100759.84
2022-08-26T15:19:21.408Z,100754.69
2022-08-26T15:22:13.653Z,100752.56
2022-08-26T15:24:40.908Z,100750.97
2022-08-26T15:27:09.082Z,100746.13
2022-08-26T15:29:36.200Z,100746.63
2022-08-26T15:32:04.127Z,100745.03
2022-08-26T15:34:32.151Z,100748.56
2022-08-26T15:36:59.263Z,100762.69
2022-08-26T15:39:26.334Z,100765.91
2022-08-26T15:41:56.067Z,100761.25
2022-08-26T15:44:25.103Z,100763.78
2022-08-26T15:46:58.275Z,100770.53
2022-08-26T15:49:27.398Z,100770.84
2022-08-26T15:51:55.062Z,100744.41
2022-08-26T15:54:23.838Z,100719.84
2022-08-26T15:56:52.510Z,100710.88
2022-08-26T15:59:21.912Z,100703.50
2022-08-26T16:01:49.870Z,100697.38
2022-08-26T16:04:18.499Z,100704.94
2022-08-26T16:06:50.366Z,100690.19
2022-08-26T16:09:23.551Z,100713.59
2022-08-26T16:11:54.038Z,100717.13
2022-08-26T16:14:23.219Z,100727.72
2022-08-26T16:16:50.860Z,100740.56
2022-08-26T16:19:18.335Z,100740.88
2022-08-26T16:21:46.028Z,100748.72
2022-08-26T16:24:13.626Z,100755.00
2022-08-26T16:26:42.751Z,100751.78
2022-08-26T16:29:13.834Z,100741.97
2022-08-26T16:31:41.907Z,100732.69
2022-08-26T16:34:09.610Z,100717.94
2022-08-26T16:36:38.696Z,100708.47
2022-08-26T16:39:08.076Z,100714.41
2022-08-26T16:41:35.921Z,100719.84
2022-08-26T16:44:04.461Z,100714.41
2022-08-26T16:46:31.645Z,100713.13
2022-08-26T16:48:59.487Z,100718.56
2022-08-26T16:51:28.134Z,100718.38
2022-08-26T16:53:59.336Z,100718.38
2022-08-26T16:56:33.734Z,100729.91
2022-08-26T16:59:05.095Z,100730.72
2022-08-26T17:01:32.580Z,100732.00
2022-08-26T17:03:59.809Z,100732.81
2022-08-26T17:06:26.821Z,100729.28
2022-08-26T17:08:53.912Z,100729.78
2022-08-26T17:11:20.873Z,100726.75
2022-08-26T17:13:47.997Z,100731.06
2022-08-26T17:16:15.336Z,100741.34
2022-08-26T17:18:42.428Z,100741.66
2022-08-26T17:21:12.209Z,100744.88
2022-08-26T17:23:40.989Z,100738.31
2022-08-26T17:26:09.055Z,100745.13
2022-08-26T17:28:36.553Z,100750.28
2022-08-26T17:31:05.228Z,100737.44
2022-08-26T17:33:32.780Z,100746.44
2022-08-26T17:36:00.653Z,100750.75
2022-08-26T17:38:29.051Z,100755.41
2022-08-26T17:40:57.594Z,100751.56
2022-08-26T17:43:26.757Z,100749.97
2022-08-26T17:46:06.889Z,100741.47
2022-08-26T17:48:36.203Z,100738.25
2022-08-26T17:51:13.585Z,100730.38
2022-08-26T17:53:41.577Z,100728.94
2022-08-26T17:56:12.528Z,100732.97
2022-08-26T17:58:40.876Z,100718.84
2022-08-26T18:01:25.914Z,100713.88
2022-08-26T18:03:59.515Z,100715.00
2022-08-26T18:06:27.737Z,100711.78
2022-08-26T18:08:55.462Z,100718.84
2022-08-26T18:11:24.588Z,100711.78
2022-08-26T18:13:51.815Z,100707.44
2022-08-26T18:16:20.103Z,100711.28
2022-08-26T18:18:48.601Z,100718.94
2022-08-26T18:21:19.300Z,100717.31
2022-08-26T18:23:47.177Z,100711.06
2022-08-26T18:26:31.787Z,100714.91
2022-08-26T18:28:59.929Z,100713.91
2022-08-26T18:31:27.819Z,100713.13
2022-08-26T18:33:55.227Z,100706.84
2022-08-26T18:36:27.113Z,100707.97
2022-08-26T18:38:55.145Z,100708.28
2022-08-26T18:41:25.413Z,100708.28
2022-08-26T18:43:54.091Z,100712.13
2022-08-26T18:46:24.978Z,100708.09
2022-08-26T18:48:53.892Z,100706.19
2022-08-26T18:51:25.628Z,100697.50
2022-08-26T18:53:53.320Z,100695.91
2022-08-26T18:56:20.380Z,100686.13
2022-08-26T18:58:48.232Z,100695.91
2022-08-26T19:01:17.421Z,100693.19
2022-08-26T19:03:46.139Z,100698.63
2022-08-26T19:06:22.238Z,100696.72
2022-08-26T19:08:51.096Z,100703.59
2022-08-26T19:11:32.582Z,100701.50
2022-08-26T19:14:08.219Z,100703.09
2022-08-26T19:16:36.729Z,100699.56
2022-08-26T19:19:05.127Z,100709.66
2022-08-26T19:21:34.345Z,100714.81
2022-08-26T19:24:06.020Z,100717.22
2022-08-26T19:26:33.176Z,100725.72
2022-08-26T19:29:00.514Z,100732.78
2022-08-26T19:31:27.521Z,100747.50
2022-08-26T19:33:56.541Z,100744.28
2022-08-26T19:36:27.682Z,100752.97
2022-08-26T19:38:56.657Z,100755.38
2022-08-26T19:41:37.173Z,100752.34
2022-08-26T19:44:12.968Z,100752.34
2022-08-26T19:46:40.356Z,100758.09
2022-08-26T19:49:07.386Z,100750.88
2022-08-26T19:51:36.545Z,100765.66
2022-08-26T19:54:04.386Z,100762.94
2022-08-26T19:56:31.892Z,100768.88
2022-08-26T19:58:59.082Z,100761.81
2022-08-26T20:01:26.134Z,100771.59
2022-08-26T20:03:53.362Z,100777.06
2022-08-26T20:06:20.850Z,100768.56
2022-08-26T20:08:48.198Z,100762.31
2022-08-26T20:11:18.887Z,100758.47
2022-08-26T20:13:47.930Z,100769.38
2022-08-26T20:16:16.214Z,100780.28
2022-08-26T20:19:03.920Z,100774.81
2022-08-26T20:21:35.611Z,100777.88
2022-08-26T20:24:09.915Z,100785.25
2022-08-26T20:26:40.786Z,100798.06
2022-08-26T20:29:10.304Z,100801.59
2022-08-26T20:31:38.051Z,100805.44
2022-08-26T20:34:06.819Z,100802.72
2022-08-26T20:36:34.467Z,100808.97
2022-08-26T20:39:01.486Z,100808.16
2022-08-26T20:41:29.285Z,100807.06
2022-08-26T20:43:57.165Z,100805.13
2022-08-26T20:46:25.367Z,100806.44
2022-08-26T20:48:53.718Z,100810.28
2022-08-26T20:51:23.533Z,100809.16
2022-08-26T20:53:51.115Z,100811.88
2022-08-26T20:56:23.652Z,100813.81
2022-08-26T20:58:59.127Z,100810.75
2022-08-26T21:01:33.582Z,100813.00
2022-08-26T21:04:04.342Z,100811.88
2022-08-26T21:06:35.218Z,100820.06
2022-08-26T21:09:05.424Z,100818.94
2022-08-26T21:11:33.515Z,100826.31
2022-08-26T21:14:04.674Z,100824.41
2022-08-26T21:16:36.664Z,100821.66
2022-08-26T21:19:09.297Z,100814.00
2022-08-26T21:21:36.471Z,100805.31
2022-08-26T21:24:04.164Z,100805.00
2022-08-26T21:26:31.410Z,100810.75
2022-08-26T21:29:00.944Z,100809.34
2022-08-26T21:31:29.678Z,100801.78
2022-08-26T21:33:56.671Z,100795.53
2022-08-26T21:36:23.931Z,100786.34
2022-08-26T21:38:50.925Z,100780.09
2022-08-26T21:41:22.174Z,100779.28
2022-08-26T21:43:53.907Z,100786.97
2022-08-26T21:46:23.574Z,100777.19
2022-08-26T21:48:56.572Z,100772.34
2022-08-26T21:51:27.519Z,100772.47
2022-08-26T21:53:57.442Z,100784.50
2022-08-26T21:56:27.420Z,100775.84
2022-08-26T21:58:56.382Z,100791.69
2022-08-26T22:01:26.240Z,100788.78
2022-08-26T22:03:54.439Z,100791.81
2022-08-26T22:06:24.742Z,100791.63
2022-08-26T22:08:53.046Z,100799.63
2022-08-26T22:11:20.469Z,100794.59
2022-08-26T22:13:49.186Z,100797.44
2022-08-26T22:16:17.171Z,100784.72
2022-08-26T22:18:45.963Z,100785.84
2022-08-26T22:21:20.961Z,100779.28
2022-08-26T22:23:48.060Z,100766.91
2022-08-26T22:26:25.261Z,100757.13
2022-08-26T22:28:55.573Z,100754.41
2022-08-26T22:31:35.300Z,100752.78
2022-08-26T22:34:09.725Z,100739.97
2022-08-26T22:36:43.902Z,100739.16
2022-08-26T22:39:13.766Z,100736.75
2022-08-26T22:41:43.628Z,100724.25
2022-08-26T22:44:12.142Z,100717.47
2022-08-26T22:46:40.762Z,100706.28
2022-08-26T22:49:11.126Z,100698.94
2022-08-26T22:51:38.431Z,100698.94
2022-08-26T22:54:06.102Z,100687.50
2022-08-26T22:56:33.644Z,100690.75
2022-08-26T22:59:00.720Z,100692.38
2022-08-26T23:01:28.248Z,100695.41
2022-08-26T23:07:05.813Z,100726.16
2022-08-26T23:09:32.833Z,100728.88
2022-08-26T23:11:59.914Z,100728.09
2022-08-26T23:14:27.213Z,100724.84
2022-08-26T23:16:54.289Z,100725.63
2022-08-26T23:19:23.117Z,100730.28
2022-08-26T23:21:51.461Z,100725.94
2022-08-26T23:24:18.724Z,100714.88
2022-08-26T23:26:46.751Z,100719.50
2022-08-26T23:29:15.464Z,100716.28
2022-08-26T23:31:43.250Z,100716.78
2022-08-26T23:34:29.386Z,100716.47
2022-08-26T23:36:58.500Z,100724.47
2022-08-26T23:39:26.331Z,100732.81
2022-08-26T23:41:53.301Z,100731.50
2022-08-26T23:44:20.843Z,100730.59
2022-08-26T23:46:47.873Z,100737.63
2022-08-26T23:49:14.847Z,100738.44
2022-08-26T23:52:00.603Z,100735.44
2022-08-26T23:54:27.772Z,100732.19
2022-08-26T23:56:54.922Z,100737.06
2022-08-26T23:59:21.871Z,100738.97
